createdAt,value
2017-02-24T00:00:11.614Z,0
2017-02-24T00:00:52.156Z,0
2017-02-24T00:01:32.699Z,0
2017-02-24T00:02:13.224Z,0
2017-02-24T00:02:53.767Z,0
2017-02-24T00:03:34.286Z,0
2017-02-24T00:04:14.791Z,0
2017-02-24T00:04:55.309Z,0
2017-02-24T00:05:35.820Z,0
2017-02-24T00:06:16.337Z,0
2017-02-24T00:06:56.872Z,0
2017-02-24T00:07:37.392Z,0
2017-02-24T00:08:17.994Z,0
2017-02-24T00:08:58.520Z,0
2017-02-24T00:09:39.016Z,0
2017-02-24T00:10:19.557Z,0
2017-02-24T00:11:00.072Z,0
2017-02-24T00:11:40.594Z,0
2017-02-24T00:12:21.114Z,0
2017-02-24T00:13:01.634Z,0
2017-02-24T00:13:42.168Z,0
2017-02-24T00:14:22.672Z,0
2017-02-24T00:15:03.184Z,0
2017-02-24T00:15:43.698Z,0
2017-02-24T00:16:24.216Z,0
2017-02-24T00:17:04.778Z,0
2017-02-24T00:17:45.295Z,0
2017-02-24T00:18:25.814Z,0
2017-02-24T00:19:06.343Z,0
2017-02-24T00:19:46.863Z,0
2017-02-24T00:20:27.396Z,0
2017-02-24T00:21:07.917Z,0
2017-02-24T00:21:48.455Z,0
2017-02-24T00:22:28.980Z,0
2017-02-24T00:23:09.520Z,0
2017-02-24T00:23:50.039Z,0
2017-02-24T00:24:30.565Z,0
2017-02-24T00:25:11.089Z,0
2017-02-24T00:25:51.617Z,0
2017-02-24T00:26:32.141Z,0
2017-02-24T00:27:12.723Z,0
2017-02-24T00:27:53.237Z,0
2017-02-24T00:28:33.764Z,0
2017-02-24T00:29:14.297Z,0
2017-02-24T00:29:54.827Z,0
2017-02-24T00:30:35.401Z,0
2017-02-24T00:31:15.921Z,0
2017-02-24T00:31:56.442Z,0
2017-02-24T00:32:36.970Z,0
2017-02-24T00:33:17.504Z,0
2017-02-24T00:33:58.011Z,0
2017-02-24T00:34:38.539Z,0
2017-02-24T00:35:19.058Z,0
2017-02-24T00:35:59.601Z,0
2017-02-24T00:36:40.155Z,0
2017-02-24T00:37:20.672Z,0
2017-02-24T00:38:01.205Z,0
2017-02-24T00:38:41.741Z,0
2017-02-24T00:39:22.261Z,0
2017-02-24T00:40:02.828Z,0
2017-02-24T00:40:43.359Z,0
2017-02-24T00:41:23.886Z,0
2017-02-24T00:42:04.413Z,0
2017-02-24T00:42:44.937Z,0
2017-02-24T00:43:25.472Z,0
2017-02-24T00:44:05.995Z,0
2017-02-24T00:44:46.516Z,0
2017-02-24T00:45:27.048Z,0
2017-02-24T00:46:07.589Z,0
2017-02-24T00:46:48.117Z,0
2017-02-24T00:47:28.670Z,0
2017-02-24T00:48:09.197Z,0
2017-02-24T00:48:49.710Z,0
2017-02-24T00:49:30.235Z,0
2017-02-24T00:50:10.758Z,0
2017-02-24T00:50:51.289Z,0
2017-02-24T00:51:31.826Z,0
2017-02-24T00:52:12.351Z,0
2017-02-24T00:52:52.887Z,0
2017-02-24T00:53:33.423Z,0
2017-02-24T00:54:13.944Z,0
2017-02-24T00:54:54.468Z,0
2017-02-24T00:55:35.015Z,0
2017-02-24T00:56:15.554Z,0
2017-02-24T00:56:56.085Z,0
2017-02-24T00:57:36.647Z,0
2017-02-24T00:58:17.178Z,0
2017-02-24T00:58:57.677Z,0
2017-02-24T00:59:38.200Z,0
2017-02-24T01:00:18.730Z,0
2017-02-24T01:00:59.266Z,0
2017-02-24T01:01:39.787Z,0
2017-02-24T01:02:20.307Z,0
2017-02-24T01:03:00.837Z,0
2017-02-24T01:03:41.364Z,0
2017-02-24T01:04:21.885Z,0
2017-02-24T01:05:02.416Z,0
2017-02-24T01:05:42.951Z,0
2017-02-24T01:06:23.480Z,0
2017-02-24T01:07:04.012Z,0
2017-02-24T01:07:44.534Z,0
2017-02-24T01:08:25.055Z,0
2017-02-24T01:09:05.587Z,0
2017-02-24T01:09:46.104Z,0
2017-02-24T01:10:26.637Z,0
2017-02-24T01:11:07.154Z,0
2017-02-24T01:11:47.679Z,0
2017-02-24T01:12:28.196Z,0
2017-02-24T01:13:08.720Z,0
2017-02-24T01:13:49.251Z,0
2017-02-24T01:14:29.776Z,0
2017-02-24T01:15:10.311Z,0
2017-02-24T01:15:50.834Z,0
2017-02-24T01:16:31.365Z,0
2017-02-24T01:17:11.888Z,0
2017-02-24T01:17:52.429Z,0
2017-02-24T01:18:32.959Z,0
2017-02-24T01:19:13.491Z,0
2017-02-24T01:19:54.010Z,0
2017-02-24T01:20:34.522Z,0
2017-02-24T01:21:15.042Z,0
2017-02-24T01:21:55.567Z,0
2017-02-24T01:22:36.085Z,0
2017-02-24T01:23:16.607Z,0
2017-02-24T01:23:57.138Z,0
2017-02-24T01:24:37.680Z,0
2017-02-24T01:25:18.203Z,0
2017-02-24T01:25:58.729Z,0
2017-02-24T01:26:39.262Z,0
2017-02-24T01:27:19.800Z,0
2017-02-24T01:28:00.331Z,0
2017-02-24T01:28:40.853Z,0
2017-02-24T01:29:21.388Z,0
2017-02-24T01:30:01.904Z,0
2017-02-24T01:30:42.458Z,0
2017-02-24T01:31:22.992Z,0
2017-02-24T01:32:03.528Z,0
2017-02-24T01:32:44.056Z,0
2017-02-24T01:33:24.569Z,0
2017-02-24T01:34:05.101Z,0
2017-02-24T01:34:45.637Z,0
2017-02-24T01:35:26.141Z,0
2017-02-24T01:36:06.663Z,0
2017-02-24T01:36:47.208Z,0
2017-02-24T01:37:27.723Z,0
2017-02-24T01:38:08.248Z,0
2017-02-24T01:38:48.778Z,0
2017-02-24T01:39:29.307Z,0
2017-02-24T01:40:09.848Z,0
2017-02-24T01:40:50.391Z,0
2017-02-24T01:41:30.917Z,0
2017-02-24T01:42:11.424Z,0
2017-02-24T01:42:51.955Z,0
2017-02-24T01:43:32.484Z,0
2017-02-24T01:44:13.007Z,0
2017-02-24T01:44:53.533Z,0
2017-02-24T01:45:34.048Z,0
2017-02-24T01:46:14.584Z,0
2017-02-24T01:46:55.109Z,0
2017-02-24T01:47:35.625Z,0
2017-02-24T01:48:16.167Z,0
2017-02-24T01:48:56.704Z,0
2017-02-24T01:49:37.208Z,0
2017-02-24T01:50:17.725Z,0
2017-02-24T01:50:58.248Z,0
2017-02-24T01:51:38.783Z,0
2017-02-24T01:52:19.325Z,0
2017-02-24T01:52:59.853Z,0
2017-02-24T01:53:40.372Z,0
2017-02-24T01:54:20.877Z,0
2017-02-24T01:55:01.392Z,0
2017-02-24T01:55:41.919Z,0
2017-02-24T01:56:22.447Z,0
2017-02-24T01:57:02.973Z,0
2017-02-24T01:57:43.503Z,0
2017-02-24T01:58:24.023Z,0
2017-02-24T01:59:04.565Z,0
2017-02-24T01:59:45.105Z,0
2017-02-24T02:00:25.634Z,0
2017-02-24T02:01:06.148Z,0
2017-02-24T02:01:46.656Z,0
2017-02-24T02:02:27.182Z,0
2017-02-24T02:03:07.709Z,0
2017-02-24T02:03:48.219Z,0
2017-02-24T02:04:28.738Z,0
2017-02-24T02:05:09.258Z,0
2017-02-24T02:05:49.796Z,0
2017-02-24T02:06:30.309Z,0
2017-02-24T02:07:10.829Z,0
2017-02-24T02:07:51.365Z,0
2017-02-24T02:08:31.887Z,0
2017-02-24T02:09:12.421Z,0
2017-02-24T02:09:52.935Z,0
2017-02-24T02:10:33.461Z,0
2017-02-24T02:11:13.999Z,0
2017-02-24T02:11:54.536Z,0
2017-02-24T02:12:35.073Z,0
2017-02-24T02:13:15.584Z,0
2017-02-24T02:13:56.112Z,0
2017-02-24T02:14:36.633Z,0
2017-02-24T02:15:17.162Z,0
2017-02-24T02:15:57.688Z,0
2017-02-24T02:16:38.210Z,0
2017-02-24T02:17:18.739Z,0
2017-02-24T02:17:59.250Z,0
2017-02-24T02:18:39.789Z,0
2017-02-24T02:19:20.317Z,0
2017-02-24T02:20:00.818Z,0
2017-02-24T02:20:41.368Z,0
2017-02-24T02:21:21.902Z,0
2017-02-24T02:22:02.403Z,0
2017-02-24T02:22:42.936Z,0
2017-02-24T02:23:23.461Z,0
2017-02-24T02:24:03.990Z,0
2017-02-24T02:24:44.503Z,0
2017-02-24T02:25:25.018Z,0
2017-02-24T02:26:05.537Z,0
2017-02-24T02:26:46.059Z,0
2017-02-24T02:27:26.576Z,0
2017-02-24T02:28:07.102Z,0
2017-02-24T02:28:47.619Z,0
2017-02-24T02:29:28.157Z,0
2017-02-24T02:30:08.646Z,0
2017-02-24T02:30:49.146Z,0
2017-02-24T02:31:29.680Z,0
2017-02-24T02:32:10.229Z,0
2017-02-24T02:32:50.771Z,0
2017-02-24T02:33:31.287Z,0
2017-02-24T02:34:11.789Z,0
2017-02-24T02:34:52.301Z,0
2017-02-24T02:35:32.840Z,0
2017-02-24T02:36:13.352Z,0
2017-02-24T02:36:53.873Z,0
2017-02-24T02:37:34.404Z,0
2017-02-24T02:38:14.960Z,0
2017-02-24T02:38:55.500Z,0
2017-02-24T02:39:36.027Z,0
2017-02-24T02:40:16.536Z,0
2017-02-24T02:40:57.053Z,0
2017-02-24T02:41:37.579Z,0
2017-02-24T02:42:18.107Z,0
2017-02-24T02:42:58.628Z,0
2017-02-24T02:43:39.152Z,0
2017-02-24T02:44:19.680Z,0
2017-02-24T02:45:00.175Z,0
2017-02-24T02:45:40.723Z,0
2017-02-24T02:46:21.246Z,0
2017-02-24T02:47:01.778Z,0
2017-02-24T02:47:42.284Z,0
2017-02-24T02:48:22.811Z,0
2017-02-24T02:49:03.337Z,0
2017-02-24T02:49:43.847Z,0
2017-02-24T02:50:24.354Z,0
2017-02-24T02:51:04.901Z,0
2017-02-24T02:51:45.431Z,0
2017-02-24T02:52:25.975Z,0
2017-02-24T02:53:06.483Z,0
2017-02-24T02:53:47.011Z,0
2017-02-24T02:54:27.538Z,0
2017-02-24T02:55:08.061Z,0
2017-02-24T02:55:48.610Z,0
2017-02-24T02:56:29.129Z,0
2017-02-24T02:57:09.649Z,0
2017-02-24T02:57:50.182Z,0
2017-02-24T02:58:30.700Z,0
2017-02-24T02:59:11.230Z,0
2017-02-24T02:59:51.756Z,0
2017-02-24T03:00:32.304Z,0
2017-02-24T03:01:12.819Z,0
2017-02-24T03:01:53.342Z,0
2017-02-24T03:02:33.835Z,0
2017-02-24T03:03:14.353Z,0
2017-02-24T03:03:54.866Z,0
2017-02-24T03:04:35.382Z,0
2017-02-24T03:05:15.910Z,0
2017-02-24T03:05:56.435Z,0
2017-02-24T03:06:36.954Z,0
2017-02-24T03:07:17.472Z,0
2017-02-24T03:07:57.994Z,0
2017-02-24T03:08:38.533Z,0
2017-02-24T03:09:19.064Z,0
2017-02-24T03:09:59.585Z,0
2017-02-24T03:10:40.115Z,0
2017-02-24T03:11:20.643Z,0
2017-02-24T03:12:01.162Z,0
2017-02-24T03:12:41.693Z,0
2017-02-24T03:13:22.214Z,0
2017-02-24T03:14:02.720Z,0
2017-02-24T03:14:43.243Z,0
2017-02-24T03:15:23.771Z,0
2017-02-24T03:16:04.299Z,0
2017-02-24T03:16:44.814Z,0
2017-02-24T03:17:25.369Z,0
2017-02-24T03:18:05.907Z,0
2017-02-24T03:18:46.428Z,0
2017-02-24T03:19:26.949Z,0
2017-02-24T03:20:07.489Z,0
2017-02-24T03:20:48.013Z,0
2017-02-24T03:21:28.539Z,0
2017-02-24T03:22:09.046Z,0
2017-02-24T03:22:49.577Z,0
2017-02-24T03:23:30.117Z,0
2017-02-24T03:24:10.627Z,0
2017-02-24T03:24:51.156Z,0
2017-02-24T03:25:31.664Z,0
2017-02-24T03:26:12.184Z,0
2017-02-24T03:26:52.712Z,0
2017-02-24T03:27:33.239Z,0
2017-02-24T03:28:13.746Z,0
2017-02-24T03:28:54.302Z,0
2017-02-24T03:29:34.846Z,0
2017-02-24T03:30:15.369Z,0
2017-02-24T03:30:55.890Z,0
2017-02-24T03:31:36.435Z,0
2017-02-24T03:32:16.971Z,0
2017-02-24T03:32:57.512Z,0
2017-02-24T03:33:38.040Z,0
2017-02-24T03:34:18.566Z,0
2017-02-24T03:34:59.090Z,0
2017-02-24T03:35:39.627Z,0
2017-02-24T03:36:20.138Z,0
2017-02-24T03:37:00.660Z,0
2017-02-24T03:37:41.193Z,0
2017-02-24T03:38:21.711Z,0
2017-02-24T03:39:02.233Z,0
2017-02-24T03:39:42.791Z,0
2017-02-24T03:40:23.311Z,0
2017-02-24T03:41:03.835Z,0
2017-02-24T03:41:44.357Z,0
2017-02-24T03:42:24.894Z,0
2017-02-24T03:43:05.421Z,0
2017-02-24T03:43:45.949Z,0
2017-02-24T03:44:26.473Z,0
2017-02-24T03:45:06.998Z,0
2017-02-24T03:45:47.534Z,0
2017-02-24T03:46:28.057Z,0
2017-02-24T03:47:08.583Z,0
2017-02-24T03:47:49.142Z,0
2017-02-24T03:48:29.660Z,0
2017-02-24T03:49:10.309Z,0
2017-02-24T03:49:50.834Z,0
2017-02-24T03:50:31.372Z,0
2017-02-24T03:51:11.884Z,0
2017-02-24T03:51:52.407Z,0
2017-02-24T03:52:32.940Z,0
2017-02-24T03:53:13.456Z,0
2017-02-24T03:53:53.989Z,0
2017-02-24T03:54:34.507Z,0
2017-02-24T03:55:15.029Z,0
2017-02-24T03:55:55.546Z,0
2017-02-24T03:56:36.073Z,0
2017-02-24T03:57:16.593Z,0
2017-02-24T03:57:57.117Z,0
2017-02-24T03:58:37.640Z,0
2017-02-24T03:59:18.190Z,0
2017-02-24T03:59:58.701Z,0
2017-02-24T04:00:39.230Z,0
2017-02-24T04:01:19.761Z,0
2017-02-24T04:02:00.290Z,0
2017-02-24T04:02:40.804Z,0
2017-02-24T04:03:21.326Z,0
2017-02-24T04:04:01.849Z,0
2017-02-24T04:04:42.380Z,0
2017-02-24T04:05:22.908Z,0
2017-02-24T04:06:03.428Z,0
2017-02-24T04:06:43.951Z,0
2017-02-24T04:07:24.484Z,0
2017-02-24T04:08:05.038Z,0
2017-02-24T04:08:45.563Z,0
2017-02-24T04:09:26.085Z,0
2017-02-24T04:10:06.608Z,0
2017-02-24T04:10:47.134Z,0
2017-02-24T04:11:27.666Z,0
2017-02-24T04:12:08.184Z,0
2017-02-24T04:12:48.710Z,0
2017-02-24T04:13:29.229Z,0
2017-02-24T04:14:09.752Z,0
2017-02-24T04:14:50.310Z,0
2017-02-24T04:15:30.830Z,0
2017-02-24T04:16:11.343Z,0
2017-02-24T04:16:51.866Z,0
2017-02-24T04:17:32.391Z,0
2017-02-24T04:18:12.914Z,0
2017-02-24T04:18:53.428Z,0
2017-02-24T04:19:33.945Z,0
2017-02-24T04:20:14.458Z,0
2017-02-24T04:20:54.977Z,0
2017-02-24T04:21:35.508Z,0
2017-02-24T04:22:16.034Z,0
2017-02-24T04:22:56.565Z,0
2017-02-24T04:23:37.091Z,0
2017-02-24T04:24:17.591Z,0
2017-02-24T04:24:58.110Z,0
2017-02-24T04:25:38.615Z,0
2017-02-24T04:26:19.136Z,0
2017-02-24T04:26:59.663Z,0
2017-02-24T04:27:40.189Z,0
2017-02-24T04:28:20.696Z,0
2017-02-24T04:29:01.221Z,0
2017-02-24T04:29:41.736Z,0
2017-02-24T04:30:22.258Z,0
2017-02-24T04:31:02.800Z,0
2017-02-24T04:31:43.332Z,0
2017-02-24T04:32:23.873Z,0
2017-02-24T04:33:04.373Z,0
2017-02-24T04:33:44.900Z,0
2017-02-24T04:34:25.418Z,0
2017-02-24T04:35:05.946Z,0
2017-02-24T04:35:46.469Z,0
2017-02-24T04:36:26.981Z,0
2017-02-24T04:37:07.506Z,0
2017-02-24T04:37:48.036Z,0
2017-02-24T04:38:28.557Z,0
2017-02-24T04:39:09.091Z,0
2017-02-24T04:39:49.618Z,0
2017-02-24T04:40:30.135Z,0
2017-02-24T04:41:10.671Z,0
2017-02-24T04:41:51.202Z,0
2017-02-24T04:42:31.719Z,0
2017-02-24T04:43:12.228Z,0
2017-02-24T04:43:52.752Z,0
2017-02-24T04:44:33.283Z,0
2017-02-24T04:45:13.799Z,0
2017-02-24T04:45:54.329Z,0
2017-02-24T04:46:34.841Z,0
2017-02-24T04:47:15.377Z,0
2017-02-24T04:47:55.874Z,0
2017-02-24T04:48:36.398Z,0
2017-02-24T04:49:16.915Z,0
2017-02-24T04:49:57.438Z,0
2017-02-24T04:50:37.956Z,0
2017-02-24T04:51:18.484Z,0
2017-02-24T04:51:59.004Z,0
2017-02-24T04:52:39.523Z,0
2017-02-24T04:53:20.045Z,0
2017-02-24T04:54:00.572Z,0
2017-02-24T04:54:41.091Z,0
2017-02-24T04:55:21.616Z,0
2017-02-24T04:56:02.153Z,0
2017-02-24T04:56:42.681Z,0
2017-02-24T04:57:23.217Z,0
2017-02-24T04:58:03.742Z,0
2017-02-24T04:58:44.257Z,0
2017-02-24T04:59:24.780Z,0
2017-02-24T05:00:05.295Z,0
2017-02-24T05:00:45.819Z,0
2017-02-24T05:01:26.336Z,0
2017-02-24T05:02:06.873Z,0
2017-02-24T05:02:47.402Z,0
2017-02-24T05:03:27.918Z,0
2017-02-24T05:04:08.438Z,0
2017-02-24T05:04:48.966Z,0
2017-02-24T05:05:29.489Z,0
2017-02-24T05:06:10.009Z,0
2017-02-24T05:06:50.539Z,0
2017-02-24T05:07:31.059Z,0
2017-02-24T05:08:11.581Z,0
2017-02-24T05:08:52.113Z,0
2017-02-24T05:09:32.641Z,0
2017-02-24T05:10:13.197Z,0
2017-02-24T05:10:53.712Z,0
2017-02-24T05:11:34.235Z,0
2017-02-24T05:12:14.755Z,0
2017-02-24T05:12:55.286Z,0
2017-02-24T05:13:35.814Z,0
2017-02-24T05:14:16.338Z,0
2017-02-24T05:14:56.859Z,0
2017-02-24T05:15:37.376Z,0
2017-02-24T05:16:17.920Z,0
2017-02-24T05:16:58.413Z,0
2017-02-24T05:17:38.957Z,0
2017-02-24T05:18:19.493Z,0
2017-02-24T05:19:00.029Z,0
2017-02-24T05:19:40.547Z,0
2017-02-24T05:20:21.083Z,0
2017-02-24T05:21:01.612Z,0
2017-02-24T05:21:42.126Z,0
2017-02-24T05:22:22.622Z,0
2017-02-24T05:23:03.141Z,0
2017-02-24T05:23:43.651Z,0
2017-02-24T05:24:24.166Z,0
2017-02-24T05:25:04.712Z,0
2017-02-24T05:25:45.237Z,0
2017-02-24T05:26:25.749Z,0
2017-02-24T05:27:06.286Z,0
2017-02-24T05:27:46.805Z,0
2017-02-24T05:28:27.326Z,0
2017-02-24T05:29:07.845Z,0
2017-02-24T05:29:48.364Z,0
2017-02-24T05:30:28.886Z,0
2017-02-24T05:31:09.477Z,0
2017-02-24T05:31:49.958Z,0
2017-02-24T05:32:30.480Z,0
2017-02-24T05:33:11.013Z,0
2017-02-24T05:33:51.525Z,0
2017-02-24T05:34:32.048Z,0
2017-02-24T05:35:12.562Z,0
2017-02-24T05:35:53.087Z,0
2017-02-24T05:36:33.596Z,0
2017-02-24T05:37:14.111Z,0
2017-02-24T05:37:54.639Z,0
2017-02-24T05:38:35.172Z,0
2017-02-24T05:39:15.698Z,0
2017-02-24T05:39:56.218Z,0
2017-02-24T05:40:36.749Z,0
2017-02-24T05:41:17.269Z,0
2017-02-24T05:41:57.796Z,0
2017-02-24T05:42:38.335Z,0
2017-02-24T05:43:18.821Z,0
2017-02-24T05:43:59.349Z,0
2017-02-24T05:44:39.892Z,0
2017-02-24T05:45:20.438Z,0
2017-02-24T05:46:00.985Z,0
2017-02-24T05:46:41.502Z,0
2017-02-24T05:47:22.017Z,0
2017-02-24T05:48:02.537Z,0
2017-02-24T05:48:43.062Z,0
2017-02-24T05:49:23.633Z,0
2017-02-24T05:50:04.150Z,0
2017-02-24T05:50:44.663Z,0
2017-02-24T05:51:25.179Z,0
2017-02-24T05:52:05.706Z,0
2017-02-24T05:52:46.230Z,0
2017-02-24T05:53:26.741Z,0
2017-02-24T05:54:07.264Z,0
2017-02-24T05:54:47.792Z,0
2017-02-24T05:55:28.320Z,0
2017-02-24T05:56:08.878Z,0
2017-02-24T05:56:49.378Z,0
2017-02-24T05:57:29.901Z,0
2017-02-24T05:58:10.409Z,0
2017-02-24T05:58:50.925Z,0
2017-02-24T05:59:31.449Z,0
2017-02-24T06:00:11.968Z,0
2017-02-24T06:00:52.489Z,0
2017-02-24T06:01:33.010Z,0
2017-02-24T06:02:13.521Z,0
2017-02-24T06:02:54.042Z,0
2017-02-24T06:03:34.570Z,0
2017-02-24T06:04:15.080Z,0
2017-02-24T06:04:55.594Z,0
2017-02-24T06:05:36.124Z,0
2017-02-24T06:06:16.575Z,0
2017-02-24T06:06:57.097Z,0
2017-02-24T06:07:37.624Z,0
2017-02-24T06:08:18.143Z,0
2017-02-24T06:08:58.655Z,0
2017-02-24T06:09:39.166Z,0
2017-02-24T06:10:19.701Z,0
2017-02-24T06:11:00.227Z,0
2017-02-24T06:11:40.753Z,0
2017-02-24T06:12:21.285Z,0
2017-02-24T06:13:01.808Z,0
2017-02-24T06:13:42.333Z,0
2017-02-24T06:14:22.851Z,0
2017-02-24T06:15:03.354Z,0
2017-02-24T06:15:43.873Z,0
2017-02-24T06:16:24.393Z,0
2017-02-24T06:17:04.949Z,0
2017-02-24T06:17:45.502Z,5
2017-02-24T06:18:26.013Z,5
2017-02-24T06:19:06.533Z,5
2017-02-24T06:19:47.050Z,5
2017-02-24T06:20:27.687Z,5
2017-02-24T06:21:08.186Z,5
2017-02-24T06:21:48.922Z,5
2017-02-24T06:22:29.448Z,5
2017-02-24T06:23:09.983Z,5
2017-02-24T06:23:50.507Z,5
2017-02-24T06:24:31.057Z,5
2017-02-24T06:25:11.548Z,5
2017-02-24T06:25:52.074Z,5
2017-02-24T06:26:32.599Z,5
2017-02-24T06:27:13.151Z,10
2017-02-24T06:27:53.698Z,10
2017-02-24T06:28:34.240Z,10
2017-02-24T06:29:14.769Z,10
2017-02-24T06:29:55.332Z,10
2017-02-24T06:30:35.850Z,10
2017-02-24T06:31:16.375Z,10
2017-02-24T06:31:56.901Z,10
2017-02-24T06:32:37.431Z,10
2017-02-24T06:33:17.947Z,10
2017-02-24T06:33:58.476Z,10
2017-02-24T06:34:38.996Z,10
2017-02-24T06:35:19.508Z,10
2017-02-24T06:36:00.030Z,15
2017-02-24T06:36:40.567Z,15
2017-02-24T06:37:21.107Z,15
2017-02-24T06:38:01.635Z,15
2017-02-24T06:38:42.191Z,15
2017-02-24T06:39:22.729Z,15
2017-02-24T06:40:03.319Z,15
2017-02-24T06:40:43.808Z,15
2017-02-24T06:41:24.508Z,15
2017-02-24T06:42:04.993Z,15
2017-02-24T06:42:45.520Z,15
2017-02-24T06:43:26.031Z,15
2017-02-24T06:44:06.558Z,20
2017-02-24T06:44:47.073Z,20
2017-02-24T06:45:27.597Z,20
2017-02-24T06:46:08.116Z,20
2017-02-24T06:46:48.641Z,20
2017-02-24T06:47:29.153Z,25
2017-02-24T06:48:09.673Z,25
2017-02-24T06:48:50.200Z,25
2017-02-24T06:49:30.712Z,25
2017-02-24T06:50:11.800Z,30
2017-02-24T06:50:52.326Z,30
2017-02-24T06:51:32.863Z,30
2017-02-24T06:52:13.397Z,30
2017-02-24T06:52:53.911Z,30
2017-02-24T06:53:34.423Z,30
2017-02-24T06:54:14.970Z,30
2017-02-24T06:54:55.472Z,30
2017-02-24T06:55:35.989Z,30
2017-02-24T06:56:16.511Z,30
2017-02-24T06:56:57.036Z,30
2017-02-24T06:57:37.552Z,30
2017-02-24T06:58:18.069Z,30
2017-02-24T06:58:58.607Z,30
2017-02-24T06:59:39.162Z,30
2017-02-24T07:00:19.687Z,30
2017-02-24T07:01:00.205Z,30
2017-02-24T07:01:40.736Z,30
2017-02-24T07:02:21.257Z,30
2017-02-24T07:03:01.785Z,30
2017-02-24T07:03:42.346Z,30
2017-02-24T07:04:22.831Z,30
2017-02-24T07:05:03.349Z,30
2017-02-24T07:05:43.873Z,35
2017-02-24T07:06:24.403Z,35
2017-02-24T07:07:04.929Z,35
2017-02-24T07:07:45.508Z,30
2017-02-24T07:08:26.009Z,30
2017-02-24T07:09:06.547Z,35
2017-02-24T07:09:47.064Z,35
2017-02-24T07:10:27.606Z,35
2017-02-24T07:11:08.185Z,35
2017-02-24T07:11:48.701Z,35
2017-02-24T07:12:29.229Z,35
2017-02-24T07:13:09.751Z,35
2017-02-24T07:13:50.289Z,35
2017-02-24T07:14:30.794Z,35
2017-02-24T07:15:11.434Z,30
2017-02-24T07:15:51.928Z,30
2017-02-24T07:16:32.456Z,35
2017-02-24T07:17:12.969Z,30
2017-02-24T07:17:53.517Z,30
2017-02-24T07:18:34.048Z,30
2017-02-24T07:19:14.576Z,30
2017-02-24T07:19:55.099Z,30
2017-02-24T07:20:35.644Z,25
2017-02-24T07:21:16.141Z,25
2017-02-24T07:21:56.658Z,25
2017-02-24T07:22:37.148Z,25
2017-02-24T07:23:17.632Z,25
2017-02-24T07:23:58.139Z,25
2017-02-24T07:24:38.685Z,20
2017-02-24T07:25:19.208Z,20
2017-02-24T07:25:59.718Z,20
2017-02-24T07:26:40.238Z,20
2017-02-24T07:27:20.810Z,25
2017-02-24T07:28:01.344Z,25
2017-02-24T07:28:41.868Z,30
2017-02-24T07:29:22.367Z,35
2017-02-24T07:30:02.891Z,35
2017-02-24T07:30:43.396Z,35
2017-02-24T07:31:23.920Z,40
2017-02-24T07:32:04.460Z,35
2017-02-24T07:32:44.994Z,35
2017-02-24T07:33:25.492Z,30
2017-02-24T07:34:06.055Z,35
2017-02-24T07:34:46.581Z,35
2017-02-24T07:35:27.136Z,35
2017-02-24T07:36:07.658Z,35
2017-02-24T07:36:48.217Z,35
2017-02-24T07:37:28.742Z,35
2017-02-24T07:38:09.249Z,30
2017-02-24T07:38:49.713Z,30
2017-02-24T07:39:30.219Z,30
2017-02-24T07:40:10.827Z,30
2017-02-24T07:40:51.348Z,30
2017-02-24T07:41:31.841Z,30
2017-02-24T07:42:12.374Z,25
2017-02-24T07:42:52.874Z,25
2017-02-24T07:43:33.387Z,25
2017-02-24T07:44:13.874Z,20
2017-02-24T07:44:54.470Z,20
2017-02-24T07:45:34.969Z,20
2017-02-24T07:46:15.378Z,20
2017-02-24T07:46:55.868Z,20
2017-02-24T07:47:36.396Z,20
2017-02-24T07:48:16.933Z,20
2017-02-24T07:48:57.464Z,20
2017-02-24T07:49:37.968Z,25
2017-02-24T07:50:18.478Z,30
2017-02-24T07:50:59.003Z,30
2017-02-24T07:51:39.504Z,30
2017-02-24T07:52:20.011Z,30
2017-02-24T07:53:00.537Z,30
2017-02-24T07:53:41.024Z,35
2017-02-24T07:54:21.561Z,35
2017-02-24T07:55:02.070Z,35
2017-02-24T07:55:42.587Z,35
2017-02-24T07:56:23.092Z,35
2017-02-24T07:57:03.582Z,35
2017-02-24T07:57:44.092Z,30
2017-02-24T07:58:24.995Z,30
2017-02-24T07:59:05.558Z,30
2017-02-24T07:59:46.039Z,30
2017-02-24T08:00:26.558Z,30
2017-02-24T08:01:07.048Z,35
2017-02-24T08:01:47.555Z,35
2017-02-24T08:02:28.092Z,35
2017-02-24T08:03:08.597Z,40
2017-02-24T08:03:49.110Z,40
2017-02-24T08:04:29.628Z,40
2017-02-24T08:05:10.099Z,40
2017-02-24T08:05:50.627Z,40
2017-02-24T08:06:31.168Z,40
2017-02-24T08:07:11.734Z,45
2017-02-24T08:07:52.240Z,50
2017-02-24T08:08:32.763Z,55
2017-02-24T08:09:13.280Z,55
2017-02-24T08:09:53.778Z,55
2017-02-24T08:10:34.306Z,60
2017-02-24T08:11:14.861Z,60
2017-02-24T08:11:55.376Z,60
2017-02-24T08:12:35.951Z,60
2017-02-24T08:13:16.424Z,55
2017-02-24T08:13:57.041Z,55
2017-02-24T08:14:37.482Z,55
2017-02-24T08:15:18.134Z,55
2017-02-24T08:15:58.627Z,55
2017-02-24T08:16:39.110Z,55
2017-02-24T08:17:19.608Z,50
2017-02-24T08:18:00.100Z,45
2017-02-24T08:18:40.632Z,50
2017-02-24T08:19:21.128Z,55
2017-02-24T08:20:01.666Z,55
2017-02-24T08:20:42.194Z,55
2017-02-24T08:21:22.799Z,55
2017-02-24T08:22:03.307Z,55
2017-02-24T08:22:43.821Z,50
2017-02-24T08:23:24.307Z,55
2017-02-24T08:24:04.800Z,65
2017-02-24T08:24:45.301Z,80
2017-02-24T08:25:25.811Z,90
2017-02-24T08:26:06.341Z,90
2017-02-24T08:26:46.847Z,80
2017-02-24T08:27:27.470Z,70
2017-02-24T08:28:08.003Z,65
2017-02-24T08:28:48.526Z,65
2017-02-24T08:29:29.057Z,65
2017-02-24T08:30:09.573Z,70
2017-02-24T08:30:50.131Z,75
2017-02-24T08:31:30.685Z,80
2017-02-24T08:32:11.178Z,80
2017-02-24T08:32:51.691Z,80
2017-02-24T08:33:32.461Z,75
2017-02-24T08:34:13.293Z,70
2017-02-24T08:34:53.802Z,65
2017-02-24T08:35:34.321Z,65
2017-02-24T08:36:14.834Z,70
2017-02-24T08:36:55.333Z,75
2017-02-24T08:37:35.800Z,75
2017-02-24T08:38:16.482Z,75
2017-02-24T08:38:57.384Z,80
2017-02-24T08:39:37.834Z,85
2017-02-24T08:40:18.389Z,90
2017-02-24T08:40:58.898Z,85
2017-02-24T08:41:39.476Z,85
2017-02-24T08:42:19.947Z,80
2017-02-24T08:43:00.419Z,85
2017-02-24T08:43:40.960Z,90
2017-02-24T08:44:21.485Z,95
2017-02-24T08:45:01.940Z,95
2017-02-24T08:45:42.474Z,100
2017-02-24T08:46:22.976Z,100
2017-02-24T08:47:03.513Z,100
2017-02-24T08:47:44.037Z,100
2017-02-24T08:48:24.728Z,100
2017-02-24T08:49:05.220Z,100
2017-02-24T08:49:45.763Z,100
2017-02-24T08:50:26.215Z,105
2017-02-24T08:51:06.808Z,105
2017-02-24T08:51:47.299Z,110
2017-02-24T08:52:27.807Z,110
2017-02-24T08:53:08.316Z,110
2017-02-24T08:53:48.830Z,115
2017-02-24T08:54:29.389Z,110
2017-02-24T08:55:09.947Z,110
2017-02-24T08:55:50.429Z,110
2017-02-24T08:56:30.923Z,110
2017-02-24T08:57:11.420Z,110
2017-02-24T08:57:51.935Z,110
2017-02-24T08:58:33.069Z,105
2017-02-24T08:59:12.965Z,105
2017-02-24T08:59:53.482Z,105
2017-02-24T09:00:34.002Z,105
2017-02-24T09:01:14.467Z,110
2017-02-24T09:01:55.003Z,110
2017-02-24T09:02:35.501Z,110
2017-02-24T09:03:16.035Z,105
2017-02-24T09:03:56.533Z,95
2017-02-24T09:04:37.039Z,85
2017-02-24T09:05:18.031Z,80
2017-02-24T09:05:58.542Z,80
2017-02-24T09:06:39.077Z,85
2017-02-24T09:07:19.540Z,95
2017-02-24T09:08:00.056Z,105
2017-02-24T09:08:40.559Z,115
2017-02-24T09:09:21.321Z,115
2017-02-24T09:10:01.874Z,110
2017-02-24T09:10:42.402Z,110
2017-02-24T09:11:22.890Z,115
2017-02-24T09:12:03.479Z,115
2017-02-24T09:12:43.989Z,115
2017-02-24T09:13:24.504Z,120
2017-02-24T09:14:05.028Z,120
2017-02-24T09:14:45.546Z,115
2017-02-24T09:15:26.071Z,115
2017-02-24T09:16:06.685Z,115
2017-02-24T09:16:47.118Z,115
2017-02-24T09:17:27.619Z,110
2017-02-24T09:18:08.108Z,110
2017-02-24T09:18:48.685Z,115
2017-02-24T09:19:29.182Z,115
2017-02-24T09:20:09.674Z,115
2017-02-24T09:20:50.244Z,115
2017-02-24T09:21:30.820Z,115
2017-02-24T09:22:11.317Z,120
2017-02-24T09:22:51.794Z,125
2017-02-24T09:23:32.296Z,125
2017-02-24T09:24:12.805Z,120
2017-02-24T09:24:53.380Z,120
2017-02-24T09:25:33.942Z,120
2017-02-24T09:26:14.831Z,125
2017-02-24T09:26:55.394Z,125
2017-02-24T09:27:35.837Z,130
2017-02-24T09:28:16.317Z,130
2017-02-24T09:28:56.883Z,130
2017-02-24T09:29:37.412Z,130
2017-02-24T09:30:17.877Z,125
2017-02-24T09:30:58.373Z,120
2017-02-24T09:31:38.877Z,120
2017-02-24T09:32:19.396Z,125
2017-02-24T09:32:59.891Z,130
2017-02-24T09:33:40.415Z,135
2017-02-24T09:34:20.897Z,140
2017-02-24T09:35:01.429Z,135
2017-02-24T09:35:41.890Z,135
2017-02-24T09:36:22.455Z,135
2017-02-24T09:37:02.962Z,135
2017-02-24T09:37:43.417Z,140
2017-02-24T09:38:23.882Z,140
2017-02-24T09:39:04.372Z,145
2017-02-24T09:39:44.880Z,145
2017-02-24T09:40:25.419Z,145
2017-02-24T09:41:05.979Z,145
2017-02-24T09:41:46.504Z,145
2017-02-24T09:42:26.993Z,145
2017-02-24T09:43:07.520Z,150
2017-02-24T09:43:47.997Z,150
2017-02-24T09:44:28.520Z,150
2017-02-24T09:45:08.973Z,150
2017-02-24T09:45:49.467Z,145
2017-02-24T09:46:29.940Z,145
2017-02-24T09:47:10.467Z,145
2017-02-24T09:47:51.037Z,145
2017-02-24T09:48:31.573Z,145
2017-02-24T09:49:12.234Z,150